Time;durP1;ratioP1;P1;durP2;ratioP2;P2;SDS_P1;SDS_P2;PMS_P1;PMS_P2;Temp;Humidity;BMP_temperature;BMP_pressure;BME280_temperature;BME280_humidity;BME280_pressure;Samples;Min_cycle;Max_cycle;Signal;HPM_P1;HPM_P2
2022/08/08 00:01:36;;;;;;;5.78;5.28;;;;;;;;;;5067784;28;20428;-81
2022/08/08 00:04:06;;;;;;;6.95;5.18;;;;;;;;;;5065557;28;20808;-81
2022/08/08 00:06:36;;;;;;;7.32;5.20;;;;;;;;;;5067802;28;20772;-81
2022/08/08 00:09:06;;;;;;;6.47;5.28;;;;;;;;;;5067467;28;20465;-81
2022/08/08 00:11:34;;;;;;;9.05;5.50;;;;;;;;;;5064927;28;20429;-80
2022/08/08 00:14:04;;;;;;;6.77;5.07;;;;;;;;;;5067845;28;20427;-82
2022/08/08 00:16:37;;;;;;;7.50;5.23;;;;;;;;;;5066666;28;20421;-82
2022/08/08 00:19:07;;;;;;;5.37;4.87;;;;;;;;;;5067420;28;20411;-80
2022/08/08 00:21:42;;;;;;;6.20;5.50;;;;;;;;;;5063711;28;20495;-81
2022/08/08 00:24:12;;;;;;;5.75;5.15;;;;;;;;;;5067140;28;20449;-81
2022/08/08 00:26:40;;;;;;;7.10;5.60;;;;;;;;;;5067165;28;20419;-81
2022/08/08 00:29:11;;;;;;;6.20;5.50;;;;;;;;;;5067684;28;20437;-81
2022/08/08 00:31:39;;;;;;;5.53;5.03;;;;;;;;;;5066575;28;20426;-80
2022/08/08 00:37:04;;;;;;;7.10;5.30;;;;;;;;;;5067245;28;20432;-81
2022/08/08 00:39:34;;;;;;;5.90;5.07;;;;;;;;;;5065708;28;20444;-82
2022/08/08 00:42:18;;;;;;;5.70;5.10;;;;;;;;;;5066384;28;20421;-82
2022/08/08 00:44:58;;;;;;;6.28;5.20;;;;;;;;;;5065511;28;20474;-81
2022/08/08 00:47:43;;;;;;;5.72;5.13;;;;;;;;;;5066822;28;20432;-80
2022/08/08 00:50:34;;;;;;;6.20;4.90;;;;;;;;;;5067244;28;20430;-81
2022/08/08 00:53:05;;;;;;;6.95;5.82;;;;;;;;;;5065650;28;20425;-82
2022/08/08 00:55:46;;;;;;;7.90;5.57;;;;;;;;;;5067353;28;20437;-81
2022/08/08 00:58:30;;;;;;;6.00;5.00;;;;;;;;;;5064584;28;20427;-81
2022/08/08 01:01:02;;;;;;;6.57;5.65;;;;;;;;;;5067500;28;20429;-81
2022/08/08 01:03:44;;;;;;;6.32;5.43;;;;;;;;;;5067576;28;20435;-80
2022/08/08 01:06:43;;;;;;;7.75;5.63;;;;;;;;;;5065346;28;20429;-82
2022/08/08 01:09:29;;;;;;;8.48;6.25;;;;;;;;;;5065535;28;20432;-82
2022/08/08 01:12:14;;;;;;;5.50;5.00;;;;;;;;;;5065470;28;20421;-81
2022/08/08 01:15:11;;;;;;;6.63;5.25;;;;;;;;;;5065290;28;20425;-80
2022/08/08 01:17:56;;;;;;;6.53;5.50;;;;;;;;;;5066694;28;20538;-81
2022/08/08 01:20:33;;;;;;;5.95;5.35;;;;;;;;;;5064108;28;20425;-80
2022/08/08 01:23:14;;;;;;;5.93;5.32;;;;;;;;;;5066910;28;20424;-83
2022/08/08 01:26:01;;;;;;;6.53;5.40;;;;;;;;;;5066005;28;20429;-80
2022/08/08 01:28:37;;;;;;;5.95;5.15;;;;;;;;;;5065400;28;20423;-81
2022/08/08 01:31:21;;;;;;;6.82;5.80;;;;;;;;;;5065487;28;20431;-81
2022/08/08 01:34:08;;;;;;;7.05;5.32;;;;;;;;;;5064064;28;20424;-81
2022/08/08 01:36:57;;;;;;;6.10;5.50;;;;;;;;;;5066430;28;20434;-81
2022/08/08 01:39:29;;;;;;;7.72;5.40;;;;;;;;;;5065661;28;20435;-82
2022/08/08 01:41:59;;;;;;;5.90;5.30;;;;;;;;;;5065147;28;20926;-82
2022/08/08 01:44:32;;;;;;;6.20;5.50;;;;;;;;;;5065296;28;20908;-81
2022/08/08 01:47:05;;;;;;;5.65;5.15;;;;;;;;;;5063513;28;20407;-81
2022/08/08 01:49:43;;;;;;;7.00;5.70;;;;;;;;;;5065252;28;20440;-81
2022/08/08 01:52:18;;;;;;;5.90;5.40;;;;;;;;;;5065337;28;20469;-81
2022/08/08 01:54:50;;;;;;;9.75;6.20;;;;;;;;;;5065473;28;20813;-81
2022/08/08 01:57:23;;;;;;;6.13;5.43;;;;;;;;;;5063981;28;20427;-81
2022/08/08 01:59:59;;;;;;;6.45;5.85;;;;;;;;;;5066378;28;20429;-81
2022/08/08 02:02:33;;;;;;;6.60;5.90;;;;;;;;;;5065246;28;20430;-81
2022/08/08 02:05:02;;;;;;;7.03;5.60;;;;;;;;;;5065955;28;20423;-81
2022/08/08 02:07:40;;;;;;;7.82;5.50;;;;;;;;;;5064504;28;20420;-82
2022/08/08 02:10:27;;;;;;;10.68;6.38;;;;;;;;;;5064920;28;20438;-83
2022/08/08 02:12:57;;;;;;;8.40;5.47;;;;;;;;;;5064321;28;20427;-81
2022/08/08 02:15:29;;;;;;;6.18;5.22;;;;;;;;;;5066493;28;20440;-81
2022/08/08 02:18:00;;;;;;;6.63;5.60;;;;;;;;;;5063863;28;20429;-82
2022/08/08 02:20:28;;;;;;;6.70;6.00;;;;;;;;;;5065426;28;20440;-82
2022/08/08 02:23:01;;;;;;;6.93;5.50;;;;;;;;;;5065591;28;20423;-81
2022/08/08 02:25:30;;;;;;;7.57;5.90;;;;;;;;;;5066358;28;20899;-82
2022/08/08 02:27:58;;;;;;;7.27;5.37;;;;;;;;;;5066839;28;20424;-81
2022/08/08 02:30:31;;;;;;;8.23;5.70;;;;;;;;;;5065213;28;20430;-81
2022/08/08 02:33:05;;;;;;;6.27;5.30;;;;;;;;;;5063196;28;20465;-81
2022/08/08 02:35:46;;;;;;;6.63;5.83;;;;;;;;;;5065663;28;20455;-81
2022/08/08 02:38:33;;;;;;;7.03;5.80;;;;;;;;;;5065527;28;20429;-82
2022/08/08 02:41:14;;;;;;;6.63;5.65;;;;;;;;;;5066505;28;20897;-80
2022/08/08 02:44:02;;;;;;;6.55;5.30;;;;;;;;;;5043196;28;20437;-83
2022/08/08 02:46:46;;;;;;;6.25;5.65;;;;;;;;;;5049910;28;21154;-82
2022/08/08 02:49:25;;;;;;;7.23;6.30;;;;;;;;;;5066913;28;20429;-81
2022/08/08 02:52:12;;;;;;;6.88;6.22;;;;;;;;;;5069316;28;20914;-82
2022/08/08 02:55:00;;;;;;;6.40;5.80;;;;;;;;;;5060068;28;20423;-81
2022/08/08 02:57:44;;;;;;;7.95;5.90;;;;;;;;;;5042175;28;20433;-81
2022/08/08 03:00:30;;;;;;;9.95;5.60;;;;;;;;;;5067489;28;20449;-83
2022/08/08 03:03:16;;;;;;;6.70;5.63;;;;;;;;;;5067870;28;20421;-81
2022/08/08 03:06:00;;;;;;;6.00;5.40;;;;;;;;;;5060193;28;20438;-81
2022/08/08 03:08:42;;;;;;;10.75;6.30;;;;;;;;;;5067815;28;20429;-82
2022/08/08 03:11:28;;;;;;;9.45;6.13;;;;;;;;;;5067432;28;20444;-82
2022/08/08 03:14:07;;;;;;;8.90;6.70;;;;;;;;;;5068280;28;20425;-83
2022/08/08 03:16:39;;;;;;;6.20;5.60;;;;;;;;;;5066321;28;20435;-81
2022/08/08 03:19:15;;;;;;;6.93;6.22;;;;;;;;;;5069378;28;20876;-81
2022/08/08 03:21:41;;;;;;;5.87;5.27;;;;;;;;;;5048965;28;20401;-82
2022/08/08 03:24:10;;;;;;;7.03;5.90;;;;;;;;;;5068986;28;20413;-81
2022/08/08 03:26:39;;;;;;;7.22;5.80;;;;;;;;;;5081822;28;20398;-83
2022/08/08 03:29:08;;;;;;;8.40;5.60;;;;;;;;;;5085049;28;20497;-81
2022/08/08 03:34:19;;;;;;;5.38;4.85;;;;;;;;;;5068808;28;20953;-81
2022/08/08 03:36:45;;;;;;;6.32;5.35;;;;;;;;;;5067790;28;20420;-82
2022/08/08 03:39:14;;;;;;;7.38;5.47;;;;;;;;;;5065433;28;20427;-81
2022/08/08 03:41:41;;;;;;;6.60;5.90;;;;;;;;;;5063382;28;20407;-81
2022/08/08 03:44:07;;;;;;;7.90;6.00;;;;;;;;;;5048206;28;20429;-82
2022/08/08 03:46:43;;;;;;;7.07;6.22;;;;;;;;;;5046345;28;20435;-81
2022/08/08 03:49:16;;;;;;;7.50;5.60;;;;;;;;;;5045371;28;20429;-81
2022/08/08 03:51:42;;;;;;;6.80;5.50;;;;;;;;;;5047906;28;20405;-80
2022/08/08 03:54:11;;;;;;;6.30;5.47;;;;;;;;;;5047354;28;20441;-81
2022/08/08 03:56:39;;;;;;;6.22;5.63;;;;;;;;;;5047067;28;20406;-81
2022/08/08 03:59:05;;;;;;;7.63;5.97;;;;;;;;;;5045962;28;20439;-81
2022/08/08 04:01:35;;;;;;;9.45;5.65;;;;;;;;;;5046967;28;20431;-82
2022/08/08 04:04:02;;;;;;;6.90;6.17;;;;;;;;;;5047043;28;20437;-82
2022/08/08 04:06:28;;;;;;;9.20;7.28;;;;;;;;;;5047149;28;21087;-81
2022/08/08 04:08:55;;;;;;;8.45;6.50;;;;;;;;;;5046461;28;20423;-81
2022/08/08 04:11:21;;;;;;;7.85;7.00;;;;;;;;;;5045034;28;20429;-82
2022/08/08 04:13:49;;;;;;;7.50;5.82;;;;;;;;;;5045205;28;20437;-82
2022/08/08 04:16:15;;;;;;;6.80;5.72;;;;;;;;;;5047613;28;20797;-82
2022/08/08 04:18:42;;;;;;;6.50;5.90;;;;;;;;;;5044781;28;20427;-82
2022/08/08 04:21:11;;;;;;;7.20;6.50;;;;;;;;;;5047532;28;20433;-83
2022/08/08 04:23:37;;;;;;;7.75;6.20;;;;;;;;;;5047689;28;20956;-81
2022/08/08 04:26:05;;;;;;;6.63;5.97;;;;;;;;;;5047558;28;20421;-82
2022/08/08 04:28:31;;;;;;;7.53;6.03;;;;;;;;;;5046847;28;21033;-81
2022/08/08 04:30:59;;;;;;;7.10;6.03;;;;;;;;;;5045539;28;20439;-82
2022/08/08 04:33:26;;;;;;;6.65;5.90;;;;;;;;;;5041519;28;20834;-81
2022/08/08 04:35:53;;;;;;;7.93;6.30;;;;;;;;;;5047198;28;20430;-82
2022/08/08 04:38:19;;;;;;;7.35;6.65;;;;;;;;;;5044961;28;20434;-82
2022/08/08 04:40:46;;;;;;;7.45;6.45;;;;;;;;;;5048608;28;20438;-82
2022/08/08 04:43:13;;;;;;;7.40;6.32;;;;;;;;;;5046966;28;20405;-82
2022/08/08 04:45:40;;;;;;;10.63;7.00;;;;;;;;;;5046011;28;20927;-82
2022/08/08 04:48:08;;;;;;;8.02;6.95;;;;;;;;;;5045021;28;20417;-81
2022/08/08 04:50:34;;;;;;;8.55;7.03;;;;;;;;;;5046496;28;20515;-83
2022/08/08 04:53:01;;;;;;;8.15;7.45;;;;;;;;;;5045337;28;20799;-83
2022/08/08 04:55:28;;;;;;;8.00;7.20;;;;;;;;;;5043997;28;20423;-82
2022/08/08 04:57:54;;;;;;;9.27;8.00;;;;;;;;;;5045448;28;20442;-83
2022/08/08 05:00:23;;;;;;;10.65;8.07;;;;;;;;;;5045446;28;20415;-82
2022/08/08 05:02:50;;;;;;;9.23;8.15;;;;;;;;;;5046494;28;20540;-81
2022/08/08 05:05:18;;;;;;;10.20;8.60;;;;;;;;;;5043845;28;20515;-82
2022/08/08 05:07:46;;;;;;;10.00;9.00;;;;;;;;;;5042753;28;20457;-82
2022/08/08 05:10:12;;;;;;;9.90;8.45;;;;;;;;;;5045335;28;20491;-82
2022/08/08 05:12:38;;;;;;;10.27;8.87;;;;;;;;;;5044311;28;20803;-83
2022/08/08 05:15:05;;;;;;;9.60;8.38;;;;;;;;;;5043861;28;20814;-82
2022/08/08 05:17:32;;;;;;;11.23;8.75;;;;;;;;;;5045582;28;20415;-83
2022/08/08 05:19:59;;;;;;;9.68;8.32;;;;;;;;;;5047263;28;20429;-82
2022/08/08 05:22:27;;;;;;;11.20;9.70;;;;;;;;;;5046041;28;20421;-83
2022/08/08 05:24:54;;;;;;;11.05;8.70;;;;;;;;;;5040022;28;20431;-81
2022/08/08 05:27:20;;;;;;;10.35;8.60;;;;;;;;;;5044226;28;20427;-82
2022/08/08 05:29:47;;;;;;;10.15;8.00;;;;;;;;;;5044917;28;20440;-81
2022/08/08 05:32:14;;;;;;;13.80;8.77;;;;;;;;;;5046389;28;20423;-82
2022/08/08 05:34:41;;;;;;;12.63;9.30;;;;;;;;;;5044904;28;20458;-82
2022/08/08 05:37:08;;;;;;;9.95;8.77;;;;;;;;;;5044276;28;20425;-82
2022/08/08 05:39:37;;;;;;;12.20;9.30;;;;;;;;;;5044245;28;20429;-81
2022/08/08 05:42:04;;;;;;;10.02;8.80;;;;;;;;;;5042630;28;20413;-81
2022/08/08 05:44:34;;;;;;;12.50;10.10;;;;;;;;;;5044598;28;20436;-82
2022/08/08 05:47:00;;;;;;;12.27;10.30;;;;;;;;;;5043304;28;20414;-83
2022/08/08 05:49:27;;;;;;;14.57;12.98;;;;;;;;;;5043212;28;20426;-83
2022/08/08 05:51:53;;;;;;;14.88;12.82;;;;;;;;;;5044040;28;20430;-82
2022/08/08 05:54:20;;;;;;;14.47;12.03;;;;;;;;;;5042960;28;20431;-81
2022/08/08 05:56:50;;;;;;;14.80;12.07;;;;;;;;;;5040264;28;20420;-80
2022/08/08 05:59:19;;;;;;;15.82;13.30;;;;;;;;;;5042696;28;20440;-81
2022/08/08 06:01:51;;;;;;;14.60;12.10;;;;;;;;;;5042700;28;20402;-80
2022/08/08 06:04:18;;;;;;;14.05;12.65;;;;;;;;;;5043661;28;21196;-83
2022/08/08 06:06:47;;;;;;;18.20;13.25;;;;;;;;;;5043353;28;20419;-81
2022/08/08 06:09:14;;;;;;;19.33;14.43;;;;;;;;;;5043628;28;20455;-81
2022/08/08 06:11:41;;;;;;;14.70;13.00;;;;;;;;;;5042951;28;20433;-81
2022/08/08 06:14:09;;;;;;;17.55;13.20;;;;;;;;;;5043916;28;20728;-82
2022/08/08 06:16:36;;;;;;;17.75;14.18;;;;;;;;;;5040998;28;20451;-81
2022/08/08 06:19:03;;;;;;;19.50;15.60;;;;;;;;;;5047703;28;20483;-83
2022/08/08 06:21:30;;;;;;;20.30;14.38;;;;;;;;;;5048154;28;20435;-81
2022/08/08 06:23:56;;;;;;;15.50;13.75;;;;;;;;;;5046747;28;20538;-83
2022/08/08 06:26:24;;;;;;;20.88;14.70;;;;;;;;;;5047574;28;20666;-83
2022/08/08 06:28:52;;;;;;;17.88;13.55;;;;;;;;;;5046023;28;20429;-83
2022/08/08 06:31:21;;;;;;;14.80;12.40;;;;;;;;;;5047124;28;20431;-82
2022/08/08 06:33:50;;;;;;;14.57;11.85;;;;;;;;;;5061387;28;20481;-82
2022/08/08 06:36:21;;;;;;;15.73;11.90;;;;;;;;;;5044014;28;20429;-83
2022/08/08 06:38:49;;;;;;;14.63;12.35;;;;;;;;;;5045872;28;20938;-83
2022/08/08 06:41:17;;;;;;;15.10;11.25;;;;;;;;;;5044391;28;20433;-82
2022/08/08 06:43:44;;;;;;;13.30;9.00;;;;;;;;;;5038018;28;20435;-83
2022/08/08 06:46:10;;;;;;;8.38;7.43;;;;;;;;;;5077115;28;20483;-82
2022/08/08 06:48:38;;;;;;;10.02;8.45;;;;;;;;;;5064312;28;20420;-80
2022/08/08 06:51:05;;;;;;;12.00;8.50;;;;;;;;;;5065160;28;20417;-81
2022/08/08 06:53:31;;;;;;;11.98;8.63;;;;;;;;;;5064597;28;20423;-82
2022/08/08 06:55:58;;;;;;;11.55;8.02;;;;;;;;;;5065785;28;20454;-80
2022/08/08 06:58:24;;;;;;;10.68;8.57;;;;;;;;;;5064700;28;20498;-81
2022/08/08 07:00:51;;;;;;;10.25;8.20;;;;;;;;;;5064881;28;20431;-83
2022/08/08 07:03:25;;;;;;;9.15;6.40;;;;;;;;;;5064547;28;20429;-80
2022/08/08 07:05:55;;;;;;;9.20;6.57;;;;;;;;;;5064509;28;20435;-82
2022/08/08 07:08:24;;;;;;;9.77;6.15;;;;;;;;;;5062279;28;20911;-82
2022/08/08 07:10:51;;;;;;;9.40;5.82;;;;;;;;;;5065378;28;20899;-81
2022/08/08 07:13:19;;;;;;;6.82;5.60;;;;;;;;;;5065261;28;20431;-80
2022/08/08 07:15:46;;;;;;;11.90;5.80;;;;;;;;;;5064678;28;20423;-81
2022/08/08 07:18:18;;;;;;;7.15;5.30;;;;;;;;;;5064047;28;20824;-80
2022/08/08 07:20:46;;;;;;;5.88;3.97;;;;;;;;;;5063793;28;20943;-81
2022/08/08 07:23:18;;;;;;;4.68;3.20;;;;;;;;;;5063161;28;20424;-80
2022/08/08 07:25:45;;;;;;;5.63;3.30;;;;;;;;;;5063097;28;20435;-80
2022/08/08 07:28:14;;;;;;;9.05;3.40;;;;;;;;;;5064744;28;20408;-82
2022/08/08 07:30:40;;;;;;;5.82;2.92;;;;;;;;;;5066095;28;20449;-81
2022/08/08 07:33:10;;;;;;;4.57;2.70;;;;;;;;;;5064954;28;20429;-79
2022/08/08 07:35:37;;;;;;;5.28;2.90;;;;;;;;;;5064236;28;20416;-80
2022/08/08 07:38:04;;;;;;;5.85;2.90;;;;;;;;;;5061317;28;20425;-82
2022/08/08 07:40:33;;;;;;;6.18;2.70;;;;;;;;;;5065480;28;20435;-82
2022/08/08 07:43:01;;;;;;;4.07;2.40;;;;;;;;;;5066333;28;20430;-83
2022/08/08 07:45:27;;;;;;;4.47;2.50;;;;;;;;;;5065617;28;20431;-81
2022/08/08 07:47:54;;;;;;;6.70;2.70;;;;;;;;;;5064177;28;20423;-79
2022/08/08 07:50:20;;;;;;;5.53;2.03;;;;;;;;;;5065011;28;20428;-81
2022/08/08 07:52:50;;;;;;;5.43;2.42;;;;;;;;;;5063257;28;20434;-80
2022/08/08 07:55:21;;;;;;;4.28;2.58;;;;;;;;;;5065489;28;20424;-80
2022/08/08 07:57:53;;;;;;;3.70;2.30;;;;;;;;;;5064413;28;20446;-81
2022/08/08 08:00:21;;;;;;;6.50;2.50;;;;;;;;;;5064547;28;20432;-82
2022/08/08 08:02:52;;;;;;;6.57;2.50;;;;;;;;;;5060980;28;20429;-82
2022/08/08 08:05:20;;;;;;;5.43;2.30;;;;;;;;;;5065274;28;20423;-81
2022/08/08 08:07:47;;;;;;;5.75;2.10;;;;;;;;;;5068121;28;20490;-80
2022/08/08 08:10:16;;;;;;;5.07;2.40;;;;;;;;;;5069977;28;20928;-81
2022/08/08 08:12:51;;;;;;;6.85;2.35;;;;;;;;;;5066445;28;20851;-81
2022/08/08 08:15:24;;;;;;;4.63;2.10;;;;;;;;;;5069483;28;20415;-80
2022/08/08 08:17:52;;;;;;;5.57;2.67;;;;;;;;;;5066508;28;20436;-81
2022/08/08 08:20:21;;;;;;;5.40;2.73;;;;;;;;;;5065720;28;20431;-81
2022/08/08 08:22:48;;;;;;;4.25;2.10;;;;;;;;;;5067323;28;20435;-81
2022/08/08 08:25:16;;;;;;;3.72;2.00;;;;;;;;;;5070569;28;20421;-81
2022/08/08 08:27:42;;;;;;;2.53;2.20;;;;;;;;;;5069308;28;20467;-81
2022/08/08 08:30:09;;;;;;;4.82;2.30;;;;;;;;;;5070020;28;20508;-80
2022/08/08 08:32:37;;;;;;;11.70;2.50;;;;;;;;;;5070607;28;20427;-80
2022/08/08 08:35:04;;;;;;;4.53;2.50;;;;;;;;;;5071681;28;20447;-81
2022/08/08 08:37:30;;;;;;;3.72;1.95;;;;;;;;;;5069062;28;20431;-80
2022/08/08 08:39:58;;;;;;;6.13;2.38;;;;;;;;;;5068974;28;20427;-80
2022/08/08 08:42:25;;;;;;;3.00;1.60;;;;;;;;;;5069754;28;20428;-81
2022/08/08 08:44:51;;;;;;;4.20;2.40;;;;;;;;;;5070521;28;20409;-79
2022/08/08 08:47:19;;;;;;;4.18;2.10;;;;;;;;;;5067649;28;20435;-82
2022/08/08 08:49:46;;;;;;;8.05;2.60;;;;;;;;;;5070296;28;20570;-81
2022/08/08 08:52:16;;;;;;;3.15;1.80;;;;;;;;;;5071069;28;20425;-81
2022/08/08 08:54:44;;;;;;;2.70;1.88;;;;;;;;;;5067424;28;20425;-81
2022/08/08 08:57:10;;;;;;;4.50;2.45;;;;;;;;;;5068967;28;20423;-81
2022/08/08 08:59:40;;;;;;;3.88;1.95;;;;;;;;;;5066963;28;20425;-81
2022/08/08 09:02:11;;;;;;;3.47;2.20;;;;;;;;;;5068405;28;20429;-82
2022/08/08 09:04:37;;;;;;;4.97;2.10;;;;;;;;;;5073386;28;20456;-80
2022/08/08 09:07:07;;;;;;;3.50;1.80;;;;;;;;;;5070674;28;20505;-80
2022/08/08 09:09:34;;;;;;;3.67;2.25;;;;;;;;;;5058098;28;20434;-81
2022/08/08 09:12:01;;;;;;;6.78;2.47;;;;;;;;;;5084954;28;20429;-80
2022/08/08 09:14:28;;;;;;;5.57;2.25;;;;;;;;;;5066726;28;20439;-81
2022/08/08 09:16:55;;;;;;;3.10;2.50;;;;;;;;;;5068367;28;20455;-81
2022/08/08 09:19:21;;;;;;;4.05;2.47;;;;;;;;;;5067358;28;20561;-81
2022/08/08 09:21:50;;;;;;;4.43;2.50;;;;;;;;;;5068049;28;20961;-81
2022/08/08 09:24:21;;;;;;;5.45;3.08;;;;;;;;;;5064793;28;20423;-82
2022/08/08 09:26:51;;;;;;;7.18;2.80;;;;;;;;;;5067334;28;20428;-81
2022/08/08 09:29:21;;;;;;;6.72;2.40;;;;;;;;;;5061525;28;20477;-81
2022/08/08 09:31:51;;;;;;;4.38;1.90;;;;;;;;;;5067278;28;20924;-80
2022/08/08 09:34:19;;;;;;;2.70;1.90;;;;;;;;;;5060189;28;20435;-81
2022/08/08 09:36:46;;;;;;;3.90;2.13;;;;;;;;;;5065687;28;20778;-80
2022/08/08 09:39:15;;;;;;;4.18;1.88;;;;;;;;;;5064595;28;20930;-80
2022/08/08 09:41:44;;;;;;;3.80;2.10;;;;;;;;;;5067453;28;20504;-81
2022/08/08 09:44:16;;;;;;;5.30;2.25;;;;;;;;;;5061669;28;20431;-80
2022/08/08 09:46:44;;;;;;;4.50;2.70;;;;;;;;;;5068815;28;20431;-79
2022/08/08 09:49:11;;;;;;;4.93;2.67;;;;;;;;;;5069241;28;20436;-80
2022/08/08 09:51:52;;;;;;;6.70;2.23;;;;;;;;;;5066653;28;20431;-80
2022/08/08 09:54:23;;;;;;;5.35;2.30;;;;;;;;;;5068413;28;20475;-80
2022/08/08 09:56:54;;;;;;;4.33;2.17;;;;;;;;;;5068481;28;20440;-80
2022/08/08 09:59:24;;;;;;;4.15;2.28;;;;;;;;;;5075172;28;20463;-81
2022/08/08 10:01:51;;;;;;;5.57;2.20;;;;;;;;;;5071850;28;20427;-80
2022/08/08 10:04:21;;;;;;;5.35;2.50;;;;;;;;;;5066726;28;20426;-81
2022/08/08 10:06:48;;;;;;;4.35;2.25;;;;;;;;;;5070779;28;20501;-80
2022/08/08 10:09:15;;;;;;;2.47;1.70;;;;;;;;;;5069482;28;20802;-81
2022/08/08 10:11:50;;;;;;;3.10;1.83;;;;;;;;;;5069867;28;20428;-80
2022/08/08 10:14:17;;;;;;;5.38;2.08;;;;;;;;;;5067719;28;20930;-80
2022/08/08 10:16:44;;;;;;;3.90;1.80;;;;;;;;;;5067076;28;20439;-80
2022/08/08 10:19:11;;;;;;;5.20;2.10;;;;;;;;;;5067995;28;20950;-81
2022/08/08 10:21:38;;;;;;;3.88;1.90;;;;;;;;;;5066599;28;20419;-80
2022/08/08 10:24:05;;;;;;;3.85;2.00;;;;;;;;;;5063126;28;20445;-80
2022/08/08 10:26:37;;;;;;;3.72;1.80;;;;;;;;;;5064257;28;20427;-80
2022/08/08 10:29:04;;;;;;;5.53;2.50;;;;;;;;;;5062761;28;20440;-79
2022/08/08 10:34:17;;;;;;;3.73;1.90;;;;;;;;;;5064267;28;20479;-80
2022/08/08 10:36:44;;;;;;;5.90;1.98;;;;;;;;;;5063639;28;20477;-80
2022/08/08 10:39:11;;;;;;;3.30;1.90;;;;;;;;;;5063356;28;20453;-79
2022/08/08 10:41:38;;;;;;;11.60;2.00;;;;;;;;;;5063506;28;20419;-81
2022/08/08 10:44:05;;;;;;;3.20;1.70;;;;;;;;;;5064023;28;20940;-79
2022/08/08 10:46:34;;;;;;;4.30;1.70;;;;;;;;;;5064647;28;20421;-81
2022/08/08 10:49:00;;;;;;;3.33;1.80;;;;;;;;;;5065503;28;20800;-80
2022/08/08 10:51:27;;;;;;;4.50;1.80;;;;;;;;;;5064460;28;20902;-81
2022/08/08 10:53:54;;;;;;;4.00;1.50;;;;;;;;;;5064132;28;20429;-81
2022/08/08 10:56:21;;;;;;;5.75;1.80;;;;;;;;;;5060459;28;20416;-81
2022/08/08 10:58:56;;;;;;;1.85;1.40;;;;;;;;;;5063459;28;20891;-81
2022/08/08 11:01:27;;;;;;;3.00;1.60;;;;;;;;;;5063613;28;20478;-82
2022/08/08 11:03:56;;;;;;;2.70;1.88;;;;;;;;;;5062005;28;20433;-81
2022/08/08 11:06:23;;;;;;;3.33;1.50;;;;;;;;;;5063734;28;20449;-79
2022/08/08 11:08:59;;;;;;;2.63;1.60;;;;;;;;;;5064308;28;20420;-82
2022/08/08 11:11:26;;;;;;;2.47;1.50;;;;;;;;;;5063535;28;20479;-81
2022/08/08 11:13:54;;;;;;;3.87;1.67;;;;;;;;;;5065365;28;20434;-80
2022/08/08 11:16:22;;;;;;;3.47;1.83;;;;;;;;;;5066216;28;20427;-79
2022/08/08 11:18:49;;;;;;;5.47;1.90;;;;;;;;;;5065281;28;20439;-82
2022/08/08 11:21:18;;;;;;;2.45;1.70;;;;;;;;;;5066945;28;20423;-82
2022/08/08 11:23:46;;;;;;;5.43;1.80;;;;;;;;;;5069094;28;20434;-82
2022/08/08 11:26:16;;;;;;;2.83;1.60;;;;;;;;;;5067914;28;20433;-81
2022/08/08 11:28:43;;;;;;;3.40;1.80;;;;;;;;;;5067907;28;21015;-81
2022/08/08 11:31:10;;;;;;;3.10;1.60;;;;;;;;;;5069592;28;20434;-80
2022/08/08 11:33:37;;;;;;;2.03;1.60;;;;;;;;;;5066561;28;20473;-81
2022/08/08 11:36:04;;;;;;;3.63;1.30;;;;;;;;;;5064907;28;20911;-81
2022/08/08 11:38:34;;;;;;;2.53;1.60;;;;;;;;;;5065106;28;20909;-80
2022/08/08 11:41:01;;;;;;;2.00;1.30;;;;;;;;;;5063980;28;20413;-80
2022/08/08 11:43:29;;;;;;;2.20;1.20;;;;;;;;;;5063739;28;20418;-81
2022/08/08 11:45:56;;;;;;;3.50;1.70;;;;;;;;;;5062272;28;20442;-79
2022/08/08 11:48:23;;;;;;;3.78;1.80;;;;;;;;;;5060981;28;20801;-81
2022/08/08 11:50:50;;;;;;;4.03;1.75;;;;;;;;;;5064576;28;20423;-80
2022/08/08 11:53:18;;;;;;;2.20;1.40;;;;;;;;;;5062944;28;20415;-80
2022/08/08 11:55:49;;;;;;;2.10;1.40;;;;;;;;;;5063573;28;20424;-80
2022/08/08 11:58:16;;;;;;;4.57;1.45;;;;;;;;;;5062838;28;20900;-80
2022/08/08 12:00:46;;;;;;;2.97;1.52;;;;;;;;;;5063743;28;20434;-80
2022/08/08 12:03:17;;;;;;;3.85;1.60;;;;;;;;;;5064154;28;20515;-80
2022/08/08 12:05:44;;;;;;;2.60;1.70;;;;;;;;;;5064992;28;20467;-80
2022/08/08 12:08:11;;;;;;;1.97;1.50;;;;;;;;;;5063699;28;20503;-80
2022/08/08 12:10:45;;;;;;;4.13;2.07;;;;;;;;;;5064267;28;20425;-81
2022/08/08 12:13:21;;;;;;;2.55;1.50;;;;;;;;;;5068146;28;20472;-80
2022/08/08 12:15:48;;;;;;;2.67;1.55;;;;;;;;;;5066139;28;21000;-80
2022/08/08 12:18:15;;;;;;;3.67;1.90;;;;;;;;;;5066136;28;20410;-81
2022/08/08 12:20:42;;;;;;;4.28;1.38;;;;;;;;;;5066391;28;20423;-79
2022/08/08 12:23:10;;;;;;;3.45;1.33;;;;;;;;;;5067363;28;20516;-81
2022/08/08 12:25:36;;;;;;;4.05;1.45;;;;;;;;;;5064162;28;20436;-80
2022/08/08 12:28:11;;;;;;;2.20;1.20;;;;;;;;;;5065873;28;20883;-80
2022/08/08 12:30:39;;;;;;;2.40;1.38;;;;;;;;;;5064652;28;20431;-79
2022/08/08 12:33:16;;;;;;;3.80;1.67;;;;;;;;;;5064622;28;20435;-78
2022/08/08 12:35:42;;;;;;;3.63;1.40;;;;;;;;;;5066634;28;20463;-80
2022/08/08 12:38:11;;;;;;;4.10;2.00;;;;;;;;;;5064938;28;20539;-80
2022/08/08 12:40:38;;;;;;;1.60;1.50;;;;;;;;;;5062532;28;20450;-80
2022/08/08 12:43:05;;;;;;;3.10;1.50;;;;;;;;;;5063596;28;20436;-80
2022/08/08 12:45:35;;;;;;;2.42;1.40;;;;;;;;;;5062872;28;20433;-81
2022/08/08 12:48:04;;;;;;;3.30;1.50;;;;;;;;;;5064306;28;20460;-81
2022/08/08 12:50:41;;;;;;;3.60;1.70;;;;;;;;;;5060649;28;20499;-80
2022/08/08 12:53:17;;;;;;;2.35;1.10;;;;;;;;;;5063262;28;20443;-79
2022/08/08 12:55:51;;;;;;;2.10;1.13;;;;;;;;;;5060993;28;20439;-80
2022/08/08 12:58:18;;;;;;;2.33;1.30;;;;;;;;;;5063657;28;20440;-81
2022/08/08 13:00:44;;;;;;;2.80;1.40;;;;;;;;;;5064007;28;20431;-83
2022/08/08 13:03:22;;;;;;;2.60;1.13;;;;;;;;;;5063975;28;20443;-78
2022/08/08 13:05:49;;;;;;;2.23;1.10;;;;;;;;;;5064302;28;20970;-80
2022/08/08 13:08:16;;;;;;;2.60;1.47;;;;;;;;;;5060443;28;20424;-81
2022/08/08 13:10:52;;;;;;;2.40;1.07;;;;;;;;;;5062019;28;20433;-80
2022/08/08 13:13:26;;;;;;;3.50;1.52;;;;;;;;;;5063086;28;20441;-80
2022/08/08 13:15:53;;;;;;;2.97;1.65;;;;;;;;;;5062380;28;20438;-79
2022/08/08 13:18:21;;;;;;;3.47;1.35;;;;;;;;;;5061556;28;20467;-80
2022/08/08 13:20:49;;;;;;;2.47;1.20;;;;;;;;;;5062944;28;20432;-82
2022/08/08 13:23:16;;;;;;;3.70;1.58;;;;;;;;;;5063768;28;20432;-80
2022/08/08 13:25:43;;;;;;;1.65;1.10;;;;;;;;;;5061900;28;20409;-80
2022/08/08 13:28:09;;;;;;;3.22;1.20;;;;;;;;;;5061840;28;20417;-80
2022/08/08 13:30:35;;;;;;;1.95;1.00;;;;;;;;;;5062406;28;20418;-81
2022/08/08 13:33:02;;;;;;;2.45;1.20;;;;;;;;;;5062256;28;20450;-80
2022/08/08 13:35:30;;;;;;;7.55;1.90;;;;;;;;;;5064195;28;20467;-79
2022/08/08 13:37:59;;;;;;;2.70;1.50;;;;;;;;;;5062274;28;20426;-81
2022/08/08 13:40:26;;;;;;;3.58;1.20;;;;;;;;;;5061821;28;20449;-80
2022/08/08 13:42:52;;;;;;;2.40;1.30;;;;;;;;;;5066128;28;20458;-81
2022/08/08 13:45:20;;;;;;;2.47;1.50;;;;;;;;;;5064275;28;20452;-81
2022/08/08 13:47:55;;;;;;;1.65;1.40;;;;;;;;;;5064047;28;20426;-80
2022/08/08 13:50:22;;;;;;;3.90;1.30;;;;;;;;;;5065757;28;20467;-81
2022/08/08 13:52:50;;;;;;;3.03;1.30;;;;;;;;;;5065553;28;20425;-80
2022/08/08 13:55:18;;;;;;;4.50;1.40;;;;;;;;;;5061562;28;20803;-79
2022/08/08 13:57:44;;;;;;;2.88;1.45;;;;;;;;;;5059016;28;20550;-79
2022/08/08 14:00:15;;;;;;;2.95;1.45;;;;;;;;;;5060721;28;20949;-80
2022/08/08 14:02:42;;;;;;;1.38;1.10;;;;;;;;;;5064606;28;20421;-80
2022/08/08 14:05:09;;;;;;;3.60;1.23;;;;;;;;;;5063813;28;20432;-79
2022/08/08 14:07:36;;;;;;;2.30;1.30;;;;;;;;;;5063982;28;21004;-81
2022/08/08 14:10:05;;;;;;;2.80;1.20;;;;;;;;;;5062510;28;20423;-81
2022/08/08 14:12:32;;;;;;;3.60;1.40;;;;;;;;;;5060575;28;20428;-80
2022/08/08 14:14:59;;;;;;;2.50;1.20;;;;;;;;;;5062160;28;20433;-80
2022/08/08 14:17:25;;;;;;;2.28;1.13;;;;;;;;;;5062448;28;20431;-80
2022/08/08 14:20:00;;;;;;;2.42;1.40;;;;;;;;;;5063546;28;20440;-80
2022/08/08 14:22:27;;;;;;;2.28;1.40;;;;;;;;;;5061655;28;20424;-80
2022/08/08 14:24:54;;;;;;;2.30;0.90;;;;;;;;;;5060702;28;20436;-80
2022/08/08 14:27:27;;;;;;;2.80;1.30;;;;;;;;;;5059631;28;20423;-80
2022/08/08 14:29:59;;;;;;;1.90;1.30;;;;;;;;;;5061143;28;20415;-79
2022/08/08 14:32:26;;;;;;;2.67;1.35;;;;;;;;;;5062669;28;20783;-80
2022/08/08 14:34:53;;;;;;;3.30;1.40;;;;;;;;;;5060990;28;20437;-79
2022/08/08 14:37:20;;;;;;;2.70;1.80;;;;;;;;;;5061802;28;20433;-79
2022/08/08 14:39:50;;;;;;;3.95;1.50;;;;;;;;;;5063205;28;20792;-81
2022/08/08 14:42:26;;;;;;;1.63;1.17;;;;;;;;;;5065303;28;20425;-80
2022/08/08 14:44:53;;;;;;;2.40;1.30;;;;;;;;;;5063259;28;20800;-80
2022/08/08 14:47:19;;;;;;;3.57;1.40;;;;;;;;;;5064198;28;20421;-80
2022/08/08 14:49:46;;;;;;;3.83;1.33;;;;;;;;;;5065402;28;20428;-82
2022/08/08 14:52:12;;;;;;;3.80;1.50;;;;;;;;;;5066289;28;20415;-81
2022/08/08 14:54:44;;;;;;;1.92;1.30;;;;;;;;;;5067013;28;20431;-81
2022/08/08 14:57:11;;;;;;;2.67;1.40;;;;;;;;;;5066483;28;20550;-82
2022/08/08 14:59:38;;;;;;;3.40;1.42;;;;;;;;;;5065485;28;20436;-82
2022/08/08 15:02:05;;;;;;;2.40;1.65;;;;;;;;;;5064177;28;20424;-81
2022/08/08 15:04:32;;;;;;;3.88;1.60;;;;;;;;;;5068482;28;20428;-82
2022/08/08 15:06:58;;;;;;;3.50;1.50;;;;;;;;;;5068968;28;20436;-83